Time;durP1;ratioP1;P1;durP2;ratioP2;P2;SDS_P1;SDS_P2;PMS_P1;PMS_P2;Temp;Humidity;BMP_temperature;BMP_pressure;BME280_temperature;BME280_humidity;BME280_pressure;Samples;Min_cycle;Max_cycle;Signal;HPM_P1;HPM_P2
2021/10/25 00:00:42;;;;;;;;;;;6.40;99.90;;;;;;5052945;28;20227;-78
2021/10/25 00:03:08;;;;;;;;;;;6.40;99.90;;;;;;5047875;28;19917;-78
2021/10/25 00:05:34;;;;;;;;;;;6.40;99.90;;;;;;5052797;28;19921;-79
2021/10/25 00:08:00;;;;;;;;;;;6.40;99.90;;;;;;5045789;28;19913;-77
2021/10/25 00:10:26;;;;;;;;;;;6.40;99.90;;;;;;5051658;28;19916;-78
2021/10/25 00:12:51;;;;;;;;;;;6.40;99.90;;;;;;5044087;28;19917;-77
2021/10/25 00:15:17;;;;;;;;;;;6.40;99.90;;;;;;5049738;28;19948;-77
2021/10/25 00:17:43;;;;;;;;;;;6.40;99.90;;;;;;5047310;28;20000;-77
2021/10/25 00:20:09;;;;;;;;;;;6.40;99.90;;;;;;5052749;28;19923;-78
2021/10/25 00:22:35;;;;;;;;;;;6.40;99.90;;;;;;5050341;28;19917;-77
2021/10/25 00:25:01;;;;;;;;;;;6.40;99.90;;;;;;5054242;28;20231;-77
2021/10/25 00:27:27;;;;;;;;;;;6.50;99.90;;;;;;5049626;28;19921;-77
2021/10/25 00:29:53;;;;;;;;;;;6.50;99.90;;;;;;5057589;28;19923;-78
2021/10/25 00:32:18;;;;;;;;;;;6.50;99.90;;;;;;5052737;28;20212;-77
2021/10/25 00:34:44;;;;;;;;;;;6.40;99.90;;;;;;5056820;28;20394;-77
2021/10/25 00:37:09;;;;;;;;;;;6.50;99.90;;;;;;5072571;28;19919;-77
2021/10/25 00:39:35;;;;;;;;;;;6.50;99.90;;;;;;5048026;28;19914;-77
2021/10/25 00:42:01;;;;;;;;;;;6.50;99.90;;;;;;5057482;28;19962;-77
2021/10/25 00:44:30;;;;;;;;;;;6.50;99.90;;;;;;5067819;28;20220;-77
2021/10/25 00:46:57;;;;;;;;;;;6.50;99.90;;;;;;5045825;28;19919;-78
2021/10/25 00:49:23;;;;;;;;;;;6.50;99.90;;;;;;5052786;28;20259;-77
2021/10/25 00:51:49;;;;;;;;;;;6.60;99.90;;;;;;5050007;28;19917;-76
2021/10/25 00:54:15;;;;;;;;;;;6.60;99.90;;;;;;5047440;28;19916;-79
2021/10/25 00:56:42;;;;;;;;;;;6.60;99.90;;;;;;5059637;28;19957;-78
2021/10/25 00:59:08;;;;;;;;;;;6.70;99.90;;;;;;5059315;28;19917;-77
2021/10/25 01:01:33;;;;;;;;;;;6.70;99.90;;;;;;5052249;28;19913;-77
2021/10/25 01:03:59;;;;;;;;;;;6.80;99.90;;;;;;5057036;28;19916;-78
2021/10/25 01:06:25;;;;;;;;;;;6.90;99.90;;;;;;5059711;28;19913;-79
2021/10/25 01:08:52;;;;;;;;;;;6.90;99.90;;;;;;5054971;28;19913;-77
2021/10/25 01:11:18;;;;;;;;;;;7.00;99.90;;;;;;5051748;28;20007;-78
2021/10/25 01:13:44;;;;;;;;;;;7.00;99.90;;;;;;5055274;28;20036;-77
2021/10/25 01:16:09;;;;;;;;;;;7.10;99.90;;;;;;5056112;28;19920;-78
2021/10/25 01:18:36;;;;;;;;;;;7.20;99.90;;;;;;5056615;28;19920;-78
2021/10/25 01:21:01;;;;;;;;;;;7.20;99.90;;;;;;5049975;28;19924;-78
2021/10/25 01:23:27;;;;;;;;;;;7.20;99.90;;;;;;5057916;28;20263;-78
2021/10/25 01:25:54;;;;;;;;;;;7.30;99.90;;;;;;5051134;28;20205;-78
2021/10/25 01:28:20;;;;;;;;;;;7.30;99.90;;;;;;5056720;28;20315;-77
2021/10/25 01:30:48;;;;;;;;;;;7.40;99.90;;;;;;5057444;28;20188;-77
2021/10/25 01:33:15;;;;;;;;;;;7.50;99.90;;;;;;5048563;28;19924;-77
2021/10/25 01:35:41;;;;;;;;;;;7.50;99.90;;;;;;5052514;28;20004;-77
2021/10/25 01:38:07;;;;;;;;;;;7.50;99.90;;;;;;5056793;28;20274;-78
2021/10/25 01:40:32;;;;;;;;;;;7.60;99.90;;;;;;5057004;28;20003;-77
2021/10/25 01:42:58;;;;;;;;;;;7.60;99.90;;;;;;5050371;28;19913;-77
2021/10/25 01:45:23;;;;;;;;;;;7.60;99.90;;;;;;5054644;28;19927;-77
2021/10/25 01:47:49;;;;;;;;;;;7.60;99.90;;;;;;5054649;28;20230;-78
2021/10/25 01:50:16;;;;;;;;;;;7.70;99.90;;;;;;5050095;28;19953;-78
2021/10/25 01:52:42;;;;;;;;;;;7.70;99.90;;;;;;5050341;28;19916;-77
2021/10/25 01:55:08;;;;;;;;;;;7.80;99.90;;;;;;5048186;28;19913;-77
2021/10/25 01:57:34;;;;;;;;;;;7.80;99.90;;;;;;5058325;28;20007;-77
2021/10/25 01:59:59;;;;;;;;;;;7.80;99.90;;;;;;5049427;28;20580;-77
2021/10/25 02:02:25;;;;;;;;;;;7.90;99.90;;;;;;5057478;28;19970;-78
2021/10/25 02:04:51;;;;;;;;;;;7.90;99.90;;;;;;5050723;28;21899;-77
2021/10/25 02:07:16;;;;;;;;;;;7.90;99.90;;;;;;5050686;28;19913;-77
2021/10/25 02:09:42;;;;;;;;;;;7.90;99.90;;;;;;5056620;28;20311;-78
2021/10/25 02:12:08;;;;;;;;;;;8.00;99.90;;;;;;5050043;28;20004;-78
2021/10/25 02:14:34;;;;;;;;;;;8.00;99.90;;;;;;5050183;28;19919;-77
2021/10/25 02:16:59;;;;;;;;;;;8.10;99.90;;;;;;5057614;28;19917;-77
2021/10/25 02:19:25;;;;;;;;;;;8.10;99.90;;;;;;5051926;28;20289;-77
2021/10/25 02:21:51;;;;;;;;;;;8.20;99.90;;;;;;5045698;28;19925;-77
2021/10/25 02:24:17;;;;;;;;;;;8.30;99.90;;;;;;5053855;28;19913;-76
2021/10/25 02:26:42;;;;;;;;;;;8.30;99.90;;;;;;5057478;28;19917;-77
2021/10/25 02:29:09;;;;;;;;;;;8.40;99.90;;;;;;5040161;28;19955;-77
2021/10/25 02:31:35;;;;;;;;;;;8.40;99.90;;;;;;5058471;28;19920;-77
2021/10/25 02:34:01;;;;;;;;;;;8.40;99.90;;;;;;5050419;28;19923;-77
2021/10/25 02:36:26;;;;;;;;;;;8.50;99.90;;;;;;5039480;28;19929;-77
2021/10/25 02:38:52;;;;;;;;;;;8.50;99.90;;;;;;5054706;28;20223;-77
2021/10/25 02:41:17;;;;;;;;;;;8.60;99.90;;;;;;5050628;28;19913;-78
2021/10/25 02:43:43;;;;;;;;;;;8.60;99.90;;;;;;5049347;28;19921;-77
2021/10/25 02:46:09;;;;;;;;;;;8.70;99.90;;;;;;5042243;28;19917;-78
2021/10/25 02:48:36;;;;;;;;;;;8.60;99.90;;;;;;5052656;28;19923;-77
2021/10/25 02:51:01;;;;;;;;;;;8.70;99.90;;;;;;5045388;28;19917;-77
2021/10/25 02:53:27;;;;;;;;;;;8.70;99.90;;;;;;5043643;28;19917;-77
2021/10/25 02:55:52;;;;;;;;;;;8.60;99.90;;;;;;5050845;28;20298;-77
2021/10/25 02:58:18;;;;;;;;;;;8.60;99.90;;;;;;5053062;28;19924;-78
2021/10/25 03:00:44;;;;;;;;;;;8.70;99.90;;;;;;5056558;28;20019;-78
2021/10/25 03:03:09;;;;;;;;;;;8.70;99.90;;;;;;5048541;28;19913;-77
2021/10/25 03:05:35;;;;;;;;;;;8.70;99.90;;;;;;5052778;28;19918;-78
2021/10/25 03:08:01;;;;;;;;;;;8.70;99.90;;;;;;5059209;28;19959;-78
2021/10/25 03:10:27;;;;;;;;;;;8.80;99.90;;;;;;5046967;28;19971;-77
2021/10/25 03:12:52;;;;;;;;;;;8.80;99.90;;;;;;5047100;28;19921;-78
2021/10/25 03:15:18;;;;;;;;;;;8.80;99.90;;;;;;5057903;28;19917;-78
2021/10/25 03:17:44;;;;;;;;;;;8.90;99.90;;;;;;5051929;28;19916;-78
2021/10/25 03:20:11;;;;;;;;;;;8.90;99.90;;;;;;5055814;28;19913;-77
2021/10/25 03:22:37;;;;;;;;;;;9.00;99.90;;;;;;5056375;28;19958;-78
2021/10/25 03:25:02;;;;;;;;;;;9.00;99.90;;;;;;5052875;28;19916;-78
2021/10/25 03:27:29;;;;;;;;;;;9.00;99.90;;;;;;5049576;28;20334;-77
2021/10/25 03:29:55;;;;;;;;;;;9.00;99.90;;;;;;5049350;28;19921;-77
2021/10/25 03:32:20;;;;;;;;;;;9.00;99.90;;;;;;5050328;28;20220;-78
2021/10/25 03:34:46;;;;;;;;;;;9.00;99.90;;;;;;5051562;28;19912;-78
2021/10/25 03:37:12;;;;;;;;;;;9.10;99.90;;;;;;5051669;28;20016;-78
2021/10/25 03:39:39;;;;;;;;;;;9.10;99.90;;;;;;5047186;28;19923;-78
2021/10/25 03:42:12;;;;;;;;;;;9.10;99.90;;;;;;5046499;28;20003;-77
2021/10/25 03:45:25;;;;;;;;;;;9.10;99.90;;;;;;5042961;28;20007;-79
2021/10/25 03:47:36;;;;;;;;;;;9.10;99.90;;;;;;5048414;28;19920;-78
2021/10/25 03:50:14;;;;;;;;;;;9.10;99.90;;;;;;5054833;28;19928;-78
2021/10/25 03:55:18;;;;;;;;;;;9.10;99.90;;;;;;5055472;28;19939;-78
2021/10/25 04:27:58;;;;;;;;;;;9.10;99.90;;;;;;5056554;28;19928;-75
2021/10/25 04:30:23;;;;;;;;;;;9.10;99.90;;;;;;5055677;28;19920;-75
2021/10/25 04:32:49;;;;;;;;;;;9.10;99.90;;;;;;5051541;28;19924;-75
2021/10/25 04:35:15;;;;;;;;;;;9.10;99.90;;;;;;5045468;28;19964;-76
2021/10/25 04:37:41;;;;;;;;;;;9.10;99.90;;;;;;5049288;28;20258;-76
2021/10/25 04:40:07;;;;;;;;;;;9.10;99.90;;;;;;5046296;28;19945;-76
2021/10/25 04:42:33;;;;;;;;;;;9.10;99.90;;;;;;5050362;28;19928;-76
2021/10/25 04:44:59;;;;;;;;;;;9.10;99.90;;;;;;5052617;28;19921;-76
2021/10/25 04:47:25;;;;;;;;;;;9.10;99.90;;;;;;5049874;28;20319;-76
2021/10/25 04:49:50;;;;;;;;;;;9.10;99.90;;;;;;5049476;28;19920;-76
2021/10/25 04:52:16;;;;;;;;;;;9.10;99.90;;;;;;5052280;28;19913;-76
2021/10/25 04:54:42;;;;;;;;;;;9.10;99.90;;;;;;5050789;28;19924;-75
2021/10/25 04:57:07;;;;;;;;;;;9.10;99.90;;;;;;5064228;28;19964;-76
2021/10/25 04:59:33;;;;;;;;;;;9.10;99.90;;;;;;5051851;28;19923;-76
2021/10/25 05:01:59;;;;;;;;;;;9.20;99.90;;;;;;5047827;28;20003;-75
2021/10/25 05:04:25;;;;;;;;;;;9.20;99.90;;;;;;5048772;28;19921;-76
2021/10/25 05:06:51;;;;;;;;;;;9.20;99.90;;;;;;5049030;28;20326;-76
2021/10/25 05:09:16;;;;;;;;;;;9.10;99.90;;;;;;5051478;28;19913;-76
2021/10/25 05:11:42;;;;;;;;;;;9.10;99.90;;;;;;5057940;28;19917;-75
2021/10/25 05:14:08;;;;;;;;;;;9.10;99.90;;;;;;5052954;28;19920;-76
2021/10/25 05:16:33;;;;;;;;;;;9.10;99.90;;;;;;5058501;28;19923;-76
2021/10/25 05:18:59;;;;;;;;;;;9.10;99.90;;;;;;5056331;28;19917;-76
2021/10/25 05:21:24;;;;;;;;;;;9.10;99.90;;;;;;5056853;28;20319;-76
2021/10/25 05:23:50;;;;;;;;;;;9.20;99.90;;;;;;5053991;28;19921;-76
2021/10/25 05:26:16;;;;;;;;;;;9.20;99.90;;;;;;5057801;28;19925;-75
2021/10/25 05:28:41;;;;;;;;;;;9.20;99.90;;;;;;5058549;28;19923;-76
2021/10/25 05:31:09;;;;;;;;;;;9.20;99.90;;;;;;5054144;28;20405;-76
2021/10/25 05:33:36;;;;;;;;;;;9.20;99.90;;;;;;5048854;28;19913;-76
2021/10/25 05:36:02;;;;;;;;;;;9.20;99.90;;;;;;5054083;28;19932;-76
2021/10/25 05:38:28;;;;;;;;;;;9.20;99.90;;;;;;5050187;28;20270;-76
2021/10/25 05:40:53;;;;;;;;;;;9.30;99.90;;;;;;5052091;28;19917;-76
2021/10/25 05:43:19;;;;;;;;;;;9.20;99.90;;;;;;5052786;28;19909;-76
2021/10/25 05:45:45;;;;;;;;;;;9.30;99.90;;;;;;5051480;28;19917;-75
2021/10/25 05:48:10;;;;;;;;;;;9.30;99.90;;;;;;5048308;28;20307;-76
2021/10/25 05:50:36;;;;;;;;;;;9.30;99.90;;;;;;5052230;28;19927;-75
2021/10/25 05:53:02;;;;;;;;;;;9.30;99.90;;;;;;5053645;28;19916;-75
2021/10/25 05:55:28;;;;;;;;;;;9.30;99.90;;;;;;5052439;28;20193;-76
2021/10/25 05:57:54;;;;;;;;;;;9.40;99.90;;;;;;5053834;28;20294;-76
2021/10/25 06:00:24;;;;;;;;;;;9.40;99.90;;;;;;5062181;28;20007;-76
2021/10/25 06:02:53;;;;;;;;;;;9.40;99.90;;;;;;5052835;28;19927;-77
2021/10/25 06:05:19;;;;;;;;;;;9.40;99.90;;;;;;5052598;28;20006;-76
2021/10/25 06:07:44;;;;;;;;;;;9.40;99.90;;;;;;5062519;28;19948;-76
2021/10/25 06:10:13;;;;;;;;;;;9.50;99.90;;;;;;5053255;28;19968;-75
2021/10/25 06:12:42;;;;;;;;;;;9.50;99.90;;;;;;5053933;28;19917;-76
2021/10/25 06:15:11;;;;;;;;;;;9.50;99.90;;;;;;5049654;28;19917;-76
2021/10/25 06:17:51;;;;;;;;;;;9.50;99.90;;;;;;5064381;28;20346;-76
2021/10/25 06:20:17;;;;;;;;;;;9.50;99.90;;;;;;5051690;28;19916;-77
2021/10/25 06:22:43;;;;;;;;;;;9.50;99.90;;;;;;5053520;28;20019;-76
2021/10/25 06:25:12;;;;;;;;;;;9.50;99.90;;;;;;5057292;28;19995;-76
2021/10/25 06:27:38;;;;;;;;;;;9.60;99.90;;;;;;5052155;28;20344;-76
2021/10/25 06:30:03;;;;;;;;;;;9.60;99.90;;;;;;5050176;28;19971;-76
2021/10/25 06:32:29;;;;;;;;;;;9.60;99.90;;;;;;5051742;28;19929;-76
2021/10/25 06:34:57;;;;;;;;;;;9.50;99.90;;;;;;5050172;28;19972;-76
2021/10/25 06:37:27;;;;;;;;;;;9.50;99.90;;;;;;5052273;28;20254;-77
2021/10/25 06:39:54;;;;;;;;;;;9.50;99.90;;;;;;5055470;28;20012;-77
2021/10/25 06:42:20;;;;;;;;;;;9.50;99.90;;;;;;5062889;28;19920;-76
2021/10/25 06:44:54;;;;;;;;;;;9.50;99.90;;;;;;5053679;28;19962;-77
2021/10/25 06:47:21;;;;;;;;;;;9.50;99.90;;;;;;5053240;28;19920;-76
2021/10/25 06:49:47;;;;;;;;;;;9.50;99.90;;;;;;5049184;28;19916;-76
2021/10/25 06:52:12;;;;;;;;;;;9.50;99.90;;;;;;5053048;28;19927;-76
2021/10/25 06:54:38;;;;;;;;;;;9.50;99.90;;;;;;5048086;28;20015;-77
2021/10/25 06:57:04;;;;;;;;;;;9.50;99.90;;;;;;5053959;28;20303;-76
2021/10/25 06:59:29;;;;;;;;;;;9.50;99.90;;;;;;5054273;28;19920;-76
2021/10/25 07:01:55;;;;;;;;;;;9.50;99.90;;;;;;5051975;28;19913;-76
2021/10/25 07:04:21;;;;;;;;;;;9.50;99.90;;;;;;5051091;28;19920;-76
2021/10/25 07:06:46;;;;;;;;;;;9.50;99.90;;;;;;5050727;28;19913;-76
2021/10/25 07:09:12;;;;;;;;;;;9.60;99.90;;;;;;5052841;28;19943;-76
2021/10/25 07:11:43;;;;;;;;;;;9.60;99.90;;;;;;5050303;28;20268;-76
2021/10/25 07:14:09;;;;;;;;;;;9.60;99.90;;;;;;5050512;28;19917;-77
2021/10/25 07:21:45;;;;;;;;;;;9.70;99.90;;;;;;5050184;28;19917;-77
2021/10/25 08:07:19;;;;;;;;;;;9.70;99.90;;;;;;5053381;28;20236;-77
2021/10/25 08:10:09;;;;;;;;;;;9.80;99.90;;;;;;5047056;28;20302;-77
2021/10/25 08:12:35;;;;;;;;;;;9.80;99.90;;;;;;5048360;28;20392;-77
2021/10/25 08:15:05;;;;;;;;;;;9.80;99.90;;;;;;5050691;28;19924;-77
2021/10/25 08:17:42;;;;;;;;;;;9.70;99.90;;;;;;5049411;28;20394;-78
2021/10/25 08:20:08;;;;;;;;;;;9.80;99.90;;;;;;5050460;28;20235;-77
2021/10/25 08:22:34;;;;;;;;;;;9.80;99.90;;;;;;5048377;28;20029;-77
2021/10/25 08:24:59;;;;;;;;;;;9.80;99.90;;;;;;5049503;28;19916;-77
2021/10/25 08:27:26;;;;;;;;;;;9.80;99.90;;;;;;5050134;28;20238;-77
2021/10/25 08:29:51;;;;;;;;;;;9.90;99.90;;;;;;5047872;28;19987;-78
2021/10/25 08:32:40;;;;;;;;;;;9.90;99.90;;;;;;5050982;28;19913;-77
2021/10/25 08:35:25;;;;;;;;;;;9.90;99.90;;;;;;5049501;28;20303;-77
2021/10/25 08:40:38;;;;;;;;;;;10.00;99.90;;;;;;5051475;28;20366;-78
2021/10/25 08:43:05;;;;;;;;;;;10.00;99.90;;;;;;5047125;28;20205;-78
2021/10/25 08:45:33;;;;;;;;;;;10.00;99.90;;;;;;5054266;28;19923;-77
2021/10/25 08:47:59;;;;;;;;;;;10.00;99.90;;;;;;5050007;28;19962;-78
2021/10/25 08:50:26;;;;;;;;;;;10.10;99.90;;;;;;5051104;28;19940;-77
2021/10/25 08:52:52;;;;;;;;;;;10.10;99.90;;;;;;5051074;28;19924;-77
2021/10/25 08:55:18;;;;;;;;;;;10.10;99.90;;;;;;5051179;28;20429;-78
2021/10/25 08:57:44;;;;;;;;;;;10.20;99.90;;;;;;5051433;28;19916;-77
2021/10/25 09:00:11;;;;;;;;;;;10.20;99.90;;;;;;5053836;28;19913;-77
2021/10/25 09:02:39;;;;;;;;;;;10.20;99.90;;;;;;5053684;28;21369;-76
2021/10/25 09:05:05;;;;;;;;;;;10.30;99.90;;;;;;5054004;28;19917;-77
2021/10/25 09:07:31;;;;;;;;;;;10.30;99.90;;;;;;5057327;28;20096;-76
2021/10/25 09:09:57;;;;;;;;;;;10.30;99.90;;;;;;5053844;28;19982;-76
2021/10/25 09:12:23;;;;;;;;;;;10.30;99.90;;;;;;5051545;28;19917;-77
2021/10/25 09:14:55;;;;;;;;;;;10.40;99.90;;;;;;5049418;28;19978;-77
2021/10/25 09:17:20;;;;;;;;;;;10.40;99.90;;;;;;5052253;28;19967;-76
2021/10/25 09:19:48;;;;;;;;;;;10.50;99.90;;;;;;5052564;28;19917;-77
2021/10/25 09:22:17;;;;;;;;;;;10.50;99.90;;;;;;5052919;28;20358;-77
2021/10/25 09:24:53;;;;;;;;;;;10.50;99.90;;;;;;5069636;28;19921;-77
2021/10/25 09:27:28;;;;;;;;;;;10.50;99.90;;;;;;5054137;28;19994;-77
2021/10/25 09:29:57;;;;;;;;;;;10.60;99.90;;;;;;5053436;28;19995;-77
2021/10/25 09:32:29;;;;;;;;;;;10.60;99.90;;;;;;5052464;28;19920;-78
2021/10/25 09:34:57;;;;;;;;;;;10.60;99.90;;;;;;5053365;28;19920;-77
2021/10/25 09:37:28;;;;;;;;;;;10.60;99.90;;;;;;5052711;28;19923;-78
2021/10/25 09:40:01;;;;;;;;;;;10.60;99.90;;;;;;5052661;28;20200;-78
2021/10/25 09:50:30;;;;;;;;;;;10.60;99.90;;;;;;5054834;28;19982;-78
2021/10/25 09:52:57;;;;;;;;;;;10.60;99.90;;;;;;5052075;28;20375;-79
2021/10/25 09:55:23;;;;;;;;;;;10.60;99.90;;;;;;5047704;28;19924;-78
2021/10/25 09:58:03;;;;;;;;;;;10.60;99.90;;;;;;5049230;28;20224;-78
2021/10/25 10:00:29;;;;;;;;;;;10.60;99.90;;;;;;5050379;28;20300;-78
2021/10/25 10:02:55;;;;;;;;;;;10.70;99.90;;;;;;5052517;28;19928;-79
2021/10/25 10:05:24;;;;;;;;;;;10.70;99.90;;;;;;5055448;28;19916;-78
2021/10/25 10:07:50;;;;;;;;;;;10.70;99.90;;;;;;5053228;28;20335;-78
2021/10/25 10:10:18;;;;;;;;;;;10.70;99.90;;;;;;5051146;28;19921;-78
2021/10/25 10:12:44;;;;;;;;;;;10.70;99.90;;;;;;5052974;28;19917;-76
2021/10/25 10:15:11;;;;;;;;;;;10.70;99.90;;;;;;5054051;28;20208;-78
2021/10/25 10:17:46;;;;;;;;;;;10.70;99.90;;;;;;5053377;28;20211;-77
2021/10/25 10:20:12;;;;;;;;;;;10.70;99.90;;;;;;5052460;28;19920;-77
2021/10/25 10:22:40;;;;;;;;;;;10.70;99.90;;;;;;5049674;28;19921;-78
2021/10/25 10:25:07;;;;;;;;;;;10.70;99.90;;;;;;5053479;28;20005;-77
2021/10/25 10:27:33;;;;;;;;;;;10.80;99.90;;;;;;5051273;28;19928;-77
2021/10/25 10:29:59;;;;;;;;;;;10.80;99.90;;;;;;5050520;28;19929;-78
2021/10/25 10:32:26;;;;;;;;;;;10.80;99.90;;;;;;5052669;28;19916;-77
2021/10/25 10:34:53;;;;;;;;;;;10.80;99.90;;;;;;5049463;28;19917;-78
2021/10/25 10:37:26;;;;;;;;;;;10.80;99.90;;;;;;5050769;28;19962;-78
2021/10/25 10:39:58;;;;;;;;;;;10.80;99.90;;;;;;5050360;28;20205;-79
2021/10/25 10:42:27;;;;;;;;;;;10.80;99.90;;;;;;5051536;28;20003;-79
2021/10/25 10:45:01;;;;;;;;;;;10.80;99.90;;;;;;5051682;28;19913;-78
2021/10/25 10:47:28;;;;;;;;;;;10.80;99.90;;;;;;5052365;28;20042;-77
2021/10/25 10:49:57;;;;;;;;;;;10.80;99.90;;;;;;5052585;28;19921;-78
2021/10/25 10:52:32;;;;;;;;;;;10.80;99.90;;;;;;5049739;28;20385;-78
2021/10/25 10:55:19;;;;;;;;;;;10.80;99.90;;;;;;5045169;28;19921;-77
2021/10/25 11:00:25;;;;;;;;;;;10.90;99.90;;;;;;5049980;28;19920;-77
2021/10/25 11:03:04;;;;;;;;;;;10.90;99.90;;;;;;5060856;28;19916;-77
2021/10/25 11:05:37;;;;;;;;;;;10.90;99.90;;;;;;5051764;28;19999;-78
2021/10/25 11:08:16;;;;;;;;;;;10.90;99.90;;;;;;5052711;28;20212;-78
2021/10/25 11:10:43;;;;;;;;;;;11.00;99.90;;;;;;5050047;28;20204;-79
2021/10/25 11:13:17;;;;;;;;;;;11.00;99.90;;;;;;5050885;28;20023;-78
2021/10/25 11:15:52;;;;;;;;;;;11.00;99.90;;;;;;5059519;28;19924;-78
2021/10/25 11:18:21;;;;;;;;;;;11.00;99.90;;;;;;5051087;28;19939;-77
2021/10/25 11:20:52;;;;;;;;;;;11.00;99.90;;;;;;5052574;28;19921;-77
2021/10/25 11:23:18;;;;;;;;;;;11.00;99.90;;;;;;5053349;28;20011;-79
2021/10/25 11:25:44;;;;;;;;;;;11.00;99.90;;;;;;5060889;28;20288;-78
2021/10/25 11:28:18;;;;;;;;;;;11.00;99.90;;;;;;5052440;28;19924;-77
2021/10/25 11:30:45;;;;;;;;;;;11.00;99.90;;;;;;5055265;28;19964;-79
2021/10/25 11:33:11;;;;;;;;;;;11.00;99.90;;;;;;5050572;28;19956;-78
2021/10/25 11:35:50;;;;;;;;;;;11.00;99.90;;;;;;5052663;28;20337;-78
2021/10/25 11:38:16;;;;;;;;;;;11.00;99.90;;;;;;5053545;28;19917;-79
2021/10/25 11:40:42;;;;;;;;;;;11.10;99.90;;;;;;5049858;28;19924;-78
2021/10/25 11:43:08;;;;;;;;;;;11.00;99.90;;;;;;5051183;28;19974;-78
2021/10/25 11:45:33;;;;;;;;;;;11.10;99.90;;;;;;5052405;28;19917;-79
2021/10/25 11:47:59;;;;;;;;;;;11.10;99.90;;;;;;5047449;28;19924;-80
2021/10/25 11:50:26;;;;;;;;;;;11.10;99.90;;;;;;5044878;28;19974;-77
2021/10/25 11:52:59;;;;;;;;;;;11.10;99.90;;;;;;5048184;28;19952;-79
2021/10/25 11:55:43;;;;;;;;;;;11.10;99.90;;;;;;5048136;28;19919;-78
2021/10/25 11:58:10;;;;;;;;;;;11.10;99.90;;;;;;5047764;28;19920;-78
2021/10/25 12:00:40;;;;;;;;;;;11.20;99.90;;;;;;5046553;28;19925;-78
2021/10/25 12:03:16;;;;;;;;;;;11.10;99.90;;;;;;5068830;28;20315;-78
2021/10/25 12:05:42;;;;;;;;;;;11.20;99.90;;;;;;5051791;28;19942;-78
2021/10/25 12:08:08;;;;;;;;;;;11.10;99.90;;;;;;5048174;28;19909;-78
2021/10/25 12:10:35;;;;;;;;;;;11.20;99.90;;;;;;5048293;28;19966;-78
2021/10/25 12:13:01;;;;;;;;;;;11.20;99.90;;;;;;5050491;28;20007;-80
2021/10/25 12:15:28;;;;;;;;;;;11.20;99.90;;;;;;5052359;28;20299;-79
2021/10/25 12:17:55;;;;;;;;;;;11.20;99.90;;;;;;5052015;28;20008;-78
2021/10/25 12:20:25;;;;;;;;;;;11.30;99.90;;;;;;5049400;28;19917;-79
2021/10/25 12:23:12;;;;;;;;;;;11.20;99.90;;;;;;5043040;28;19917;-78
2021/10/25 12:25:38;;;;;;;;;;;11.30;99.90;;;;;;5050905;28;19913;-78
2021/10/25 12:28:11;;;;;;;;;;;11.30;99.90;;;;;;5047833;28;19927;-78
2021/10/25 12:30:37;;;;;;;;;;;11.40;99.90;;;;;;5046492;28;19929;-78
2021/10/25 12:33:03;;;;;;;;;;;11.40;99.90;;;;;;5047952;28;19928;-78
2021/10/25 12:35:33;;;;;;;;;;;11.40;99.90;;;;;;5048486;28;19917;-78
2021/10/25 12:38:00;;;;;;;;;;;11.40;99.90;;;;;;5048606;28;19971;-78
2021/10/25 12:40:26;;;;;;;;;;;11.40;99.90;;;;;;5047857;28;19919;-79
2021/10/25 12:42:58;;;;;;;;;;;11.40;99.90;;;;;;5049616;28;20307;-79
2021/10/25 12:45:27;;;;;;;;;;;11.50;99.90;;;;;;5049002;28;20012;-79
2021/10/25 12:47:52;;;;;;;;;;;11.50;99.90;;;;;;5050457;28;19921;-79
2021/10/25 12:50:18;;;;;;;;;;;11.40;99.90;;;;;;5050799;28;19940;-79
2021/10/25 12:52:52;;;;;;;;;;;11.40;99.90;;;;;;5051165;28;19916;-79
2021/10/25 12:55:17;;;;;;;;;;;11.50;99.90;;;;;;5052047;28;19920;-78
2021/10/25 12:57:43;;;;;;;;;;;11.50;99.90;;;;;;5052431;28;19920;-79
2021/10/25 13:00:11;;;;;;;;;;;11.50;99.90;;;;;;5054168;28;19917;-80
2021/10/25 13:02:44;;;;;;;;;;;11.50;99.90;;;;;;5058308;28;20342;-79
2021/10/25 13:05:20;;;;;;;;;;;11.50;99.90;;;;;;5051480;28;19916;-79
2021/10/25 13:07:56;;;;;;;;;;;11.50;99.90;;;;;;5051720;28;19928;-79
2021/10/25 13:10:23;;;;;;;;;;;11.50;99.90;;;;;;5050195;28;19927;-79
2021/10/25 13:12:49;;;;;;;;;;;11.60;99.90;;;;;;5051408;28;19917;-80
2021/10/25 13:15:14;;;;;;;;;;;11.60;99.90;;;;;;5051772;28;19927;-79
2021/10/25 13:17:41;;;;;;;;;;;11.60;99.90;;;;;;5050288;28;19913;-78
2021/10/25 13:20:08;;;;;;;;;;;11.60;99.90;;;;;;5052717;28;19919;-78
2021/10/25 13:22:33;;;;;;;;;;;11.60;99.90;;;;;;5047711;28;19917;-78
2021/10/25 13:24:59;;;;;;;;;;;11.50;99.90;;;;;;5051930;28;19916;-78
2021/10/25 13:27:25;;;;;;;;;;;11.50;99.90;;;;;;5047253;28;19916;-79
2021/10/25 13:29:50;;;;;;;;;;;11.50;99.90;;;;;;5053464;28;19913;-78
2021/10/25 13:32:17;;;;;;;;;;;11.60;99.90;;;;;;5054011;28;19921;-77
2021/10/25 13:34:43;;;;;;;;;;;11.60;99.90;;;;;;5052990;28;19952;-78
2021/10/25 13:37:09;;;;;;;;;;;11.60;99.90;;;;;;5054357;28;19917;-79
2021/10/25 13:39:35;;;;;;;;;;;11.60;99.90;;;;;;5055727;28;19913;-79
2021/10/25 13:42:01;;;;;;;;;;;11.60;99.90;;;;;;5053526;28;20312;-79
2021/10/25 13:44:26;;;;;;;;;;;11.60;99.90;;;;;;5054286;28;21619;-79
2021/10/25 13:46:52;;;;;;;;;;;11.60;99.90;;;;;;5055012;28;19966;-79
2021/10/25 13:49:18;;;;;;;;;;;11.60;99.90;;;;;;5053781;28;19913;-79
2021/10/25 13:51:43;;;;;;;;;;;11.60;99.90;;;;;;5053437;28;20338;-78
2021/10/25 13:54:09;;;;;;;;;;;11.60;99.90;;;;;;5052047;28;19924;-79
2021/10/25 13:56:36;;;;;;;;;;;11.60;99.90;;;;;;5054131;28;19927;-79
2021/10/25 13:59:03;;;;;;;;;;;11.60;99.90;;;;;;5052460;28;19913;-79
2021/10/25 14:01:29;;;;;;;;;;;11.60;99.90;;;;;;5076855;28;19924;-78
2021/10/25 14:03:55;;;;;;;;;;;11.60;99.90;;;;;;5050040;28;19916;-78
2021/10/25 14:06:26;;;;;;;;;;;11.60;99.90;;;;;;5050040;28;19913;-79
2021/10/25 14:08:54;;;;;;;;;;;11.60;99.90;;;;;;5053236;28;19952;-80
2021/10/25 14:11:22;;;;;;;;;;;11.60;99.90;;;;;;5055307;28;19917;-80
2021/10/25 14:18:45;;;;;;;;;;;11.70;99.90;;;;;;5053211;28;19940;-80
2021/10/25 14:21:15;;;;;;;;;;;11.70;99.90;;;;;;5056034;28;19916;-82
2021/10/25 14:23:40;;;;;;;;;;;11.70;99.90;;;;;;5061637;28;20333;-80
2021/10/25 14:26:06;;;;;;;;;;;11.70;99.90;;;;;;5052313;28;19924;-81
2021/10/25 14:28:32;;;;;;;;;;;11.70;99.90;;;;;;5051755;28;20311;-82
2021/10/25 14:30:58;;;;;;;;;;;11.70;99.90;;;;;;5051425;28;19921;-81
2021/10/25 14:33:26;;;;;;;;;;;11.70;99.90;;;;;;5053148;28;19922;-80
2021/10/25 14:35:51;;;;;;;;;;;11.70;99.90;;;;;;5050144;28;19913;-81
2021/10/25 14:43:47;;;;;;;;;;;11.70;99.90;;;;;;5074322;28;19920;-81
2021/10/25 14:46:21;;;;;;;;;;;11.80;99.90;;;;;;5063410;28;19921;-81
2021/10/25 14:48:51;;;;;;;;;;;11.80;99.90;;;;;;5063809;28;20304;-82
2021/10/25 14:54:17;;;;;;;;;;;11.80;99.90;;;;;;5075650;28;19919;-80
2021/10/25 14:56:42;;;;;;;;;;;11.80;99.90;;;;;;5062771;28;20016;-82
2021/10/25 14:59:08;;;;;;;;;;;11.80;99.90;;;;;;5061556;28;20312;-82
2021/10/25 15:01:35;;;;;;;;;;;11.80;99.90;;;;;;5061119;28;19917;-82
2021/10/25 15:04:05;;;;;;;;;;;11.80;99.90;;;;;;5066488;28;19912;-81
2021/10/25 15:06:34;;;;;;;;;;;11.80;99.90;;;;;;5074672;28;19997;-80
2021/10/25 15:09:00;;;;;;;;;;;11.80;99.90;;;;;;5078931;28;19926;-80
2021/10/25 15:11:26;;;;;;;;;;;11.80;99.90;;;;;;5072875;28;20007;-83
2021/10/25 15:13:51;;;;;;;;;;;11.80;99.90;;;;;;5062760;28;20269;-81
2021/10/25 15:16:17;;;;;;;;;;;11.80;99.90;;;;;;5078064;28;19931;-82
2021/10/25 15:18:43;;;;;;;;;;;11.80;99.90;;;;;;5058214;28;20193;-81
2021/10/25 15:21:11;;;;;;;;;;;11.80;99.90;;;;;;5053562;28;20350;-82
2021/10/25 15:23:36;;;;;;;;;;;11.80;99.90;;;;;;5044545;28;19917;-82
2021/10/25 15:26:03;;;;;;;;;;;11.80;99.90;;;;;;5053016;28;19927;-82
2021/10/25 15:28:28;;;;;;;;;;;11.90;99.90;;;;;;5053268;28;19913;-82
2021/10/25 15:30:54;;;;;;;;;;;11.90;99.90;;;;;;5051391;28;19943;-82
2021/10/25 15:33:21;;;;;;;;;;;11.90;99.90;;;;;;5052251;28;20372;-81
2021/10/25 15:35:48;;;;;;;;;;;11.90;99.90;;;;;;5052581;28;19917;-82
2021/10/25 15:38:13;;;;;;;;;;;11.90;99.90;;;;;;5056392;28;19920;-81
2021/10/25 15:40:39;;;;;;;;;;;12.00;99.90;;;;;;5051241;28;20359;-81
2021/10/25 15:43:04;;;;;;;;;;;12.00;99.90;;;;;;5052212;28;19917;-80
2021/10/25 15:45:30;;;;;;;;;;;12.00;99.90;;;;;;5053984;28;19913;-81
2021/10/25 15:47:56;;;;;;;;;;;12.00;99.90;;;;;;5058855;28;19917;-80
2021/10/25 15:50:21;;;;;;;;;;;12.10;99.90;;;;;;5051284;28;19920;-81
2021/10/25 15:52:47;;;;;;;;;;;12.10;99.90;;;;;;5056847;28;19938;-81
2021/10/25 15:55:14;;;;;;;;;;;12.10;99.90;;;;;;5051629;28;19962;-80
2021/10/25 15:57:39;;;;;;;;;;;12.10;99.90;;;;;;5052024;28;19913;-81
2021/10/25 16:00:07;;;;;;;;;;;12.10;99.90;;;;;;5059104;28;20341;-81
2021/10/25 16:02:32;;;;;;;;;;;12.00;99.90;;;;;;5049708;28;19920;-81
2021/10/25 16:04:58;;;;;;;;;;;12.00;99.90;;;;;;5056011;28;19970;-82
2021/10/25 16:07:24;;;;;;;;;;;12.00;99.90;;;;;;5042178;28;19923;-81
2021/10/25 16:09:50;;;;;;;;;;;12.00;99.90;;;;;;5053020;28;19959;-80
2021/10/25 16:12:17;;;;;;;;;;;12.00;99.90;;;;;;5052177;28;19917;-81